createdAt,value
2022-12-11T08:29:04.659Z,1.94
2022-12-11T08:34:06.718Z,1.92
2022-12-11T08:39:08.738Z,1.90
2022-12-11T08:44:16.632Z,1.91
2022-12-11T08:49:19.193Z,1.88
2022-12-11T08:54:21.186Z,1.92
2022-12-11T08:59:23.643Z,1.92
2022-12-11T09:04:25.669Z,1.93
2022-12-11T09:09:27.714Z,1.97
2022-12-11T09:14:29.735Z,1.92
2022-12-11T09:19:32.490Z,1.89
2022-12-11T09:24:34.707Z,1.96
2022-12-11T09:29:36.815Z,1.99
2022-12-11T09:34:38.813Z,1.96
2022-12-11T09:39:40.854Z,2.01
2022-12-11T09:44:43.334Z,2.04
2022-12-11T09:49:49.211Z,2.01
2022-12-11T09:54:57.269Z,1.97
2022-12-11T10:00:11.871Z,2.04
2022-12-11T10:05:28.956Z,2.08
2022-12-11T10:10:43.678Z,2.08
2022-12-11T10:16:01.179Z,2.07
2022-12-11T10:21:04.102Z,2.16
2022-12-11T10:26:17.866Z,2.20
2022-12-11T10:31:29.957Z,2.19
2022-12-11T10:36:37.206Z,2.20
2022-12-11T10:41:42.174Z,2.17
2022-12-11T10:46:45.573Z,2.05
2022-12-11T10:51:47.709Z,2.17
2022-12-11T10:56:49.842Z,2.01
2022-12-11T11:01:52.064Z,2.06
2022-12-11T11:07:14.383Z,2.10
2022-12-11T11:12:24.342Z,2.08
2022-12-11T11:17:29.571Z,2.12
2022-12-11T11:22:42.016Z,2.04
2022-12-11T11:27:49.094Z,2.03
2022-12-11T11:33:02.920Z,2.20
2022-12-11T11:38:18.910Z,2.21
2022-12-11T11:43:56.355Z,2.30
2022-12-11T11:49:04.103Z,2.41
2022-12-11T11:54:21.148Z,2.36
2022-12-11T11:59:31.124Z,2.37
2022-12-11T12:04:35.280Z,2.37
2022-12-11T12:09:43.606Z,2.37
2022-12-11T12:15:06.384Z,2.41
2022-12-11T12:20:08.515Z,2.40
2022-12-11T12:25:36.787Z,2.43
2022-12-11T12:30:53.421Z,2.44
2022-12-11T12:36:07.104Z,2.37
2022-12-11T12:41:27.815Z,2.44
2022-12-11T12:46:34.216Z,2.37
2022-12-11T12:51:38.071Z,2.41
2022-12-11T12:56:43.582Z,2.33
2022-12-11T13:01:55.213Z,2.27
2022-12-11T13:06:57.512Z,2.27
2022-12-11T13:11:59.550Z,2.40
2022-12-11T13:17:26.498Z,2.34
2022-12-11T13:22:28.618Z,2.42
2022-12-11T13:27:43.635Z,2.43
2022-12-11T13:33:07.585Z,2.43
2022-12-11T13:38:21.091Z,2.34
2022-12-11T13:43:27.127Z,2.33
2022-12-11T13:48:35.098Z,2.27
2022-12-11T13:53:37.362Z,2.22
2022-12-11T13:58:40.050Z,2.18
2022-12-11T14:03:55.487Z,2.16
2022-12-11T14:09:00.578Z,2.19
2022-12-11T14:14:06.745Z,2.08
2022-12-11T14:19:09.842Z,2.13
2022-12-11T14:24:14.209Z,2.05
2022-12-11T14:29:26.531Z,2.04
2022-12-11T14:34:35.455Z,2.01
2022-12-11T14:39:47.668Z,2.00
2022-12-11T14:45:08.063Z,1.99
2022-12-11T14:50:34.627Z,1.92
2022-12-11T14:55:39.415Z,1.90
2022-12-11T15:00:41.463Z,1.81
2022-12-11T15:05:55.330Z,1.85
2022-12-11T15:11:11.219Z,1.76
2022-12-11T15:16:14.563Z,1.76
2022-12-11T15:21:17.241Z,1.77
2022-12-11T15:26:21.256Z,1.70
2022-12-11T15:31:41.419Z,1.60
2022-12-11T15:36:43.461Z,1.58
2022-12-11T15:41:45.522Z,1.59
2022-12-11T15:46:47.646Z,1.47
2022-12-11T15:51:49.682Z,1.53
2022-12-11T15:56:51.759Z,1.62
2022-12-11T16:01:53.842Z,1.49
2022-12-11T16:06:56.312Z,1.43
2022-12-11T16:11:58.329Z,1.38
2022-12-11T16:17:00.377Z,1.37
2022-12-11T16:22:02.629Z,1.28
2022-12-11T16:27:06.030Z,1.26
2022-12-11T16:32:08.697Z,1.17
2022-12-11T16:37:11.114Z,1.26
2022-12-11T16:42:13.193Z,1.26
2022-12-11T16:47:15.229Z,1.24
2022-12-11T16:52:21.999Z,1.25
2022-12-11T16:57:24.810Z,1.16
2022-12-11T17:02:26.935Z,1.04
2022-12-11T17:07:29.071Z,1.10
2022-12-11T17:12:31.125Z,1.00
2022-12-11T17:17:33.310Z,1.10
2022-12-11T17:22:35.755Z,0.95
2022-12-11T17:27:38.030Z,1.04
2022-12-11T17:32:40.142Z,0.95
2022-12-11T17:37:42.171Z,1.08
2022-12-11T17:42:44.957Z,0.97
2022-12-11T17:47:47.030Z,0.89
2022-12-11T17:52:49.072Z,0.99
2022-12-11T17:57:51.340Z,0.97
2022-12-11T18:02:53.388Z,0.93
2022-12-11T18:07:57.928Z,0.93
2022-12-11T18:13:00.992Z,0.80
2022-12-11T18:18:04.304Z,0.79
2022-12-11T18:23:06.728Z,0.88
2022-12-11T18:28:08.790Z,0.78
2022-12-11T18:33:11.096Z,0.85
2022-12-11T18:38:13.235Z,0.85
2022-12-11T18:43:15.293Z,0.77
2022-12-11T18:48:17.386Z,0.75
2022-12-11T18:53:19.847Z,0.83
2022-12-11T18:58:22.037Z,0.81
2022-12-11T19:03:24.120Z,0.77
2022-12-11T19:08:26.545Z,0.76
2022-12-11T19:13:28.675Z,0.73
2022-12-11T19:18:30.783Z,0.72
2022-12-11T19:23:32.885Z,0.58
2022-12-11T19:28:35.071Z,0.62
2022-12-11T19:33:38.187Z,0.53
2022-12-11T19:38:42.399Z,0.57
2022-12-11T19:43:45.433Z,0.60
2022-12-11T19:48:52.034Z,0.52
2022-12-11T19:53:54.567Z,0.48
2022-12-11T19:58:56.930Z,0.45
2022-12-11T20:04:01.569Z,0.42
2022-12-11T20:09:06.100Z,0.48
2022-12-11T20:14:08.970Z,0.45
2022-12-11T20:19:11.051Z,0.43
2022-12-11T20:24:13.139Z,0.47
2022-12-11T20:29:16.259Z,0.35
2022-12-11T20:34:18.955Z,0.41
2022-12-11T20:39:21.010Z,0.39
2022-12-11T20:44:23.105Z,0.38
2022-12-11T20:49:25.436Z,0.31
2022-12-11T20:54:27.593Z,0.24
2022-12-11T20:59:29.708Z,0.05
2022-12-11T21:04:32.336Z,0.16
